Time;durP1;ratioP1;P1;durP2;ratioP2;P2;SDS_P1;SDS_P2;PMS_P1;PMS_P2;Temp;Humidity;BMP_temperature;BMP_pressure;BME280_temperature;BME280_humidity;BME280_pressure;Samples;Min_cycle;Max_cycle;Signal;HPM_P1;HPM_P2
2024/01/29 00:00:17;;;;;;;7.00;5.47;;;-1.40;99.90;;;;;;5011252;28;20580;-61
2024/01/29 00:02:44;;;;;;;5.78;4.82;;;-1.50;99.90;;;;;;5011510;28;20581;-59
2024/01/29 00:05:11;;;;;;;5.25;4.80;;;-1.50;99.90;;;;;;5011417;28;20211;-60
2024/01/29 00:07:39;;;;;;;5.90;5.30;;;-1.50;99.90;;;;;;5011628;28;20208;-58
2024/01/29 00:10:07;;;;;;;5.43;4.95;;;-1.50;99.90;;;;;;5011829;28;20334;-60
2024/01/29 00:12:34;;;;;;;6.65;5.32;;;-1.50;99.90;;;;;;5012104;28;20295;-60
2024/01/29 00:15:02;;;;;;;6.10;5.60;;;-1.60;99.90;;;;;;5012094;28;20207;-61
2024/01/29 00:17:29;;;;;;;5.85;5.45;;;-1.60;99.90;;;;;;5012023;28;20211;-60
2024/01/29 00:19:56;;;;;;;6.35;5.22;;;-1.60;99.90;;;;;;5011998;28;20797;-61
2024/01/29 00:22:22;;;;;;;5.55;5.15;;;-1.60;99.90;;;;;;5014021;28;20564;-61
2024/01/29 00:24:51;;;;;;;13.30;6.10;;;-1.60;99.90;;;;;;5016132;28;20307;-61
2024/01/29 00:27:18;;;;;;;7.43;6.00;;;-1.60;99.90;;;;;;5015648;28;20299;-60
2024/01/29 00:29:45;;;;;;;7.93;5.88;;;-1.60;99.90;;;;;;5015350;28;20244;-61
2024/01/29 00:32:12;;;;;;;6.40;5.20;;;-1.70;99.90;;;;;;5015804;28;20231;-61
2024/01/29 00:34:39;;;;;;;4.80;4.32;;;-1.70;99.90;;;;;;5015953;28;20781;-61
2024/01/29 00:37:06;;;;;;;7.40;5.70;;;-1.70;99.90;;;;;;5015472;28;20232;-60
2024/01/29 00:39:33;;;;;;;6.65;6.00;;;-1.70;99.90;;;;;;5014505;28;20338;-60
2024/01/29 00:42:01;;;;;;;6.88;6.18;;;-1.70;99.90;;;;;;5015208;28;20208;-59
2024/01/29 00:44:29;;;;;;;6.85;6.25;;;-1.70;99.90;;;;;;5015275;28;20754;-60
2024/01/29 00:46:55;;;;;;;6.15;5.55;;;-1.70;99.90;;;;;;5015587;28;20204;-59
2024/01/29 00:49:22;;;;;;;7.70;5.90;;;-1.70;99.90;;;;;;5015460;28;20323;-60
2024/01/29 00:51:49;;;;;;;7.38;5.97;;;-1.70;99.90;;;;;;5015439;28;20243;-60
2024/01/29 00:54:18;;;;;;;6.40;5.85;;;-1.80;99.90;;;;;;5015632;28;20291;-60
2024/01/29 00:56:45;;;;;;;6.57;5.85;;;-1.80;99.90;;;;;;5015395;28;20255;-60
2024/01/29 00:59:13;;;;;;;5.70;5.07;;;-1.80;99.90;;;;;;5007834;28;20224;-60
2024/01/29 01:01:40;;;;;;;7.10;6.35;;;-1.80;99.90;;;;;;5014835;28;20203;-59
2024/01/29 01:04:08;;;;;;;5.13;4.72;;;-1.80;99.90;;;;;;5014708;28;20222;-60
2024/01/29 01:06:35;;;;;;;5.25;4.78;;;-1.80;99.90;;;;;;5015160;28;20230;-60
2024/01/29 01:09:03;;;;;;;8.13;6.15;;;-1.90;99.90;;;;;;5014963;28;20240;-60
2024/01/29 01:11:30;;;;;;;7.63;5.40;;;-1.90;99.90;;;;;;5014585;28;20601;-60
2024/01/29 01:13:56;;;;;;;8.35;5.82;;;-1.90;99.90;;;;;;5014974;28;20294;-60
2024/01/29 01:16:25;;;;;;;6.28;5.47;;;-1.90;99.90;;;;;;5014015;28;20234;-60
2024/01/29 01:18:51;;;;;;;8.93;6.75;;;-1.90;99.90;;;;;;5014199;28;20319;-63
2024/01/29 01:21:18;;;;;;;6.15;5.65;;;-1.90;99.90;;;;;;5014248;28;20295;-62
2024/01/29 01:23:45;;;;;;;7.70;6.28;;;-2.00;99.90;;;;;;5014338;28;20299;-60
2024/01/29 01:26:12;;;;;;;5.50;5.10;;;-2.00;99.90;;;;;;5014488;28;20200;-60
2024/01/29 01:28:39;;;;;;;6.75;5.47;;;-2.00;99.90;;;;;;5014769;28;20317;-60
2024/01/29 01:31:06;;;;;;;4.80;4.40;;;-2.00;99.90;;;;;;5014873;28;20303;-61
2024/01/29 01:33:33;;;;;;;6.20;5.60;;;-2.00;99.90;;;;;;5014692;28;20299;-60
2024/01/29 01:36:00;;;;;;;5.78;4.55;;;-2.00;99.90;;;;;;5014605;28;20282;-62
2024/01/29 01:38:27;;;;;;;5.88;5.38;;;-2.00;99.90;;;;;;5014405;28;20319;-60
2024/01/29 01:40:54;;;;;;;5.35;4.95;;;-2.00;99.90;;;;;;5014575;28;20215;-60
2024/01/29 01:43:23;;;;;;;6.47;5.40;;;-2.00;99.90;;;;;;5014653;28;20306;-61
2024/01/29 01:46:13;;;;;;;4.72;4.40;;;-2.00;99.90;;;;;;5014571;28;20269;-60
2024/01/29 01:48:41;;;;;;;6.45;4.53;;;-2.00;99.90;;;;;;5014116;28;20318;-60
2024/01/29 01:51:08;;;;;;;4.75;4.40;;;-2.10;99.90;;;;;;5014426;28;20334;-62
2024/01/29 01:53:37;;;;;;;6.85;5.30;;;-2.10;99.90;;;;;;5014730;28;20247;-62
2024/01/29 01:56:05;;;;;;;7.20;5.93;;;-2.10;99.90;;;;;;5014350;28;20278;-62
2024/01/29 01:58:33;;;;;;;6.05;5.60;;;-2.10;99.90;;;;;;5014534;28;20233;-62
2024/01/29 02:01:00;;;;;;;6.07;5.03;;;-2.10;99.90;;;;;;5013921;28;20302;-62
2024/01/29 02:03:28;;;;;;;9.60;5.03;;;-2.10;99.90;;;;;;5014364;28;20291;-62
2024/01/29 02:05:56;;;;;;;6.70;6.00;;;-2.10;99.90;;;;;;5014310;28;20243;-62
2024/01/29 02:08:24;;;;;;;5.40;4.25;;;-2.10;99.90;;;;;;5014047;28;20250;-61
2024/01/29 02:10:53;;;;;;;5.60;4.60;;;-2.20;99.90;;;;;;5014093;28;20250;-62
2024/01/29 02:13:19;;;;;;;5.15;4.65;;;-2.20;99.90;;;;;;5014655;28;20286;-64
2024/01/29 02:15:46;;;;;;;6.45;5.28;;;-2.20;99.90;;;;;;5014407;28;20223;-62
2024/01/29 02:18:13;;;;;;;4.70;4.20;;;-2.20;99.90;;;;;;5013882;28;20239;-62
2024/01/29 02:20:40;;;;;;;7.57;5.45;;;-2.20;99.90;;;;;;5013432;28;20299;-63
2024/01/29 02:23:08;;;;;;;5.85;4.97;;;-2.20;99.90;;;;;;5013997;28;20204;-62
2024/01/29 02:25:35;;;;;;;5.97;4.70;;;-2.30;99.90;;;;;;5014130;28;20307;-61
2024/01/29 02:28:02;;;;;;;5.70;4.60;;;-2.30;99.90;;;;;;5013825;28;20215;-62
2024/01/29 02:30:29;;;;;;;5.32;4.93;;;-2.30;99.90;;;;;;5013384;28;20318;-62
2024/01/29 02:32:56;;;;;;;5.53;5.00;;;-2.30;99.90;;;;;;5013884;28;20552;-62
2024/01/29 02:35:23;;;;;;;6.70;5.30;;;-2.30;99.90;;;;;;5014114;28;20299;-62
2024/01/29 02:37:50;;;;;;;6.40;5.82;;;-2.30;99.90;;;;;;5013766;28;20235;-62
2024/01/29 02:40:18;;;;;;;5.50;5.07;;;-2.30;99.90;;;;;;5013541;28;20315;-62
2024/01/29 02:42:45;;;;;;;5.50;5.00;;;-2.30;99.90;;;;;;5013567;28;20203;-61
2024/01/29 02:45:12;;;;;;;5.80;5.18;;;-2.30;99.90;;;;;;5012943;28;20303;-61
2024/01/29 02:47:38;;;;;;;7.88;4.60;;;-2.30;99.90;;;;;;5013515;28;20291;-61
2024/01/29 02:50:06;;;;;;;4.50;4.20;;;-2.30;99.90;;;;;;5013454;28;20314;-61
2024/01/29 02:52:33;;;;;;;6.03;5.43;;;-2.40;99.90;;;;;;5013467;28;20295;-61
2024/01/29 02:55:00;;;;;;;5.00;4.47;;;-2.40;99.90;;;;;;5013553;28;20298;-60
2024/01/29 02:57:28;;;;;;;5.07;4.60;;;-2.40;99.90;;;;;;5013593;28;20318;-62
2024/01/29 02:59:55;;;;;;;4.13;3.80;;;-2.30;99.90;;;;;;5013289;28;20326;-61
2024/01/29 03:02:21;;;;;;;6.78;5.13;;;-2.40;99.90;;;;;;5013503;28;20302;-62
2024/01/29 03:04:48;;;;;;;4.85;4.45;;;-2.40;99.90;;;;;;5013491;28;20318;-61
2024/01/29 03:07:15;;;;;;;7.82;4.70;;;-2.40;99.90;;;;;;5013296;28;20210;-61
2024/01/29 03:09:42;;;;;;;4.47;4.13;;;-2.40;99.90;;;;;;5012999;28;20326;-61
2024/01/29 03:12:09;;;;;;;5.40;4.90;;;-2.40;99.90;;;;;;5013228;28;20298;-61
2024/01/29 03:14:38;;;;;;;4.28;3.97;;;-2.40;99.90;;;;;;5013530;28;20261;-61
2024/01/29 03:17:05;;;;;;;4.32;4.00;;;-2.50;99.90;;;;;;5013019;28;20605;-61
2024/01/29 03:19:32;;;;;;;7.60;4.35;;;-2.40;99.90;;;;;;5012988;28;20314;-61
2024/01/29 03:21:59;;;;;;;5.78;3.50;;;-2.40;99.90;;;;;;5005654;28;20204;-61
2024/01/29 03:24:26;;;;;;;4.45;3.80;;;-2.40;99.90;;;;;;5012822;28;20648;-62
2024/01/29 03:26:52;;;;;;;5.00;3.47;;;-2.40;99.90;;;;;;5012891;28;20290;-61
2024/01/29 03:29:19;;;;;;;5.30;4.78;;;-2.50;99.90;;;;;;5012620;28;20318;-61
2024/01/29 03:31:47;;;;;;;4.57;3.72;;;-2.50;99.90;;;;;;5012870;28;20727;-61
2024/01/29 03:34:14;;;;;;;8.32;5.10;;;-2.50;99.90;;;;;;5012835;28;20214;-61
2024/01/29 03:36:43;;;;;;;6.45;4.97;;;-2.50;99.90;;;;;;5012988;28;20234;-61
2024/01/29 03:39:10;;;;;;;5.38;4.97;;;-2.50;99.90;;;;;;5011522;28;20229;-62
2024/01/29 03:41:36;;;;;;;4.28;3.88;;;-2.50;99.90;;;;;;5012529;28;20303;-61
2024/01/29 03:44:03;;;;;;;6.07;4.15;;;-2.50;99.90;;;;;;5013541;28;20294;-62
2024/01/29 03:46:30;;;;;;;4.85;4.13;;;-2.50;99.90;;;;;;5013495;28;20291;-61
2024/01/29 03:48:58;;;;;;;4.32;3.92;;;-2.50;99.90;;;;;;5013002;28;20315;-61
2024/01/29 03:51:25;;;;;;;7.72;5.15;;;-2.50;99.90;;;;;;5012900;28;20290;-61
2024/01/29 03:53:52;;;;;;;6.28;4.35;;;-2.60;99.90;;;;;;5012876;28;20302;-60
2024/01/29 03:56:19;;;;;;;4.57;4.15;;;-2.50;99.90;;;;;;5015927;28;20321;-61
2024/01/29 03:58:46;;;;;;;4.72;3.53;;;-2.60;99.90;;;;;;5016973;28;20800;-61
2024/01/29 04:01:12;;;;;;;4.50;4.15;;;-2.60;99.90;;;;;;5016795;28;20303;-61
2024/01/29 04:03:40;;;;;;;3.67;3.30;;;-2.60;99.90;;;;;;5017265;28;20294;-61
2024/01/29 04:06:08;;;;;;;4.07;3.67;;;-2.60;99.90;;;;;;5016811;28;20598;-62
2024/01/29 04:08:35;;;;;;;4.38;3.90;;;-2.60;99.90;;;;;;5016324;28;20242;-60
2024/01/29 04:11:02;;;;;;;6.55;4.07;;;-2.60;99.90;;;;;;5016457;28;20295;-61
2024/01/29 04:13:29;;;;;;;6.00;4.57;;;-2.60;99.90;;;;;;5016854;28;20245;-60
2024/01/29 04:15:56;;;;;;;4.20;3.80;;;-2.60;99.90;;;;;;5016877;28;20294;-61
2024/01/29 04:18:23;;;;;;;3.45;3.17;;;-2.60;99.90;;;;;;5016416;28;20233;-61
2024/01/29 04:20:49;;;;;;;7.28;4.45;;;-2.60;99.90;;;;;;5016554;28;20303;-61
2024/01/29 04:23:18;;;;;;;4.10;3.80;;;-2.60;99.90;;;;;;5016309;28;20294;-61
2024/01/29 04:25:44;;;;;;;6.13;5.70;;;-2.60;99.90;;;;;;5016764;28;20302;-61
2024/01/29 04:28:11;;;;;;;5.88;5.30;;;-2.60;99.90;;;;;;5016206;28;20652;-61
2024/01/29 04:30:39;;;;;;;9.70;5.20;;;-2.60;99.90;;;;;;5016377;28;20294;-61
2024/01/29 04:33:05;;;;;;;4.85;4.38;;;-2.60;99.90;;;;;;5016207;28;20219;-61
2024/01/29 04:35:32;;;;;;;4.65;4.35;;;-2.60;99.90;;;;;;5016436;28;20269;-61
2024/01/29 04:37:59;;;;;;;7.35;6.35;;;-2.60;99.90;;;;;;5015906;28;20291;-61
2024/01/29 04:40:27;;;;;;;4.47;4.07;;;-2.70;99.90;;;;;;5015832;28;20224;-61
2024/01/29 04:42:54;;;;;;;4.35;3.17;;;-2.70;99.90;;;;;;5016037;28;20298;-61
2024/01/29 04:45:21;;;;;;;4.80;4.40;;;-2.70;99.90;;;;;;5016235;28;20275;-61
2024/01/29 04:47:48;;;;;;;5.72;5.22;;;-2.70;99.90;;;;;;5015891;28;20294;-61
2024/01/29 04:50:15;;;;;;;3.83;3.53;;;-2.60;99.90;;;;;;5015884;28;20781;-61
2024/01/29 04:52:42;;;;;;;4.38;3.97;;;-2.70;99.90;;;;;;5016135;28;20208;-60
2024/01/29 04:55:10;;;;;;;5.10;4.60;;;-2.70;99.90;;;;;;5015954;28;20593;-61
2024/01/29 04:57:38;;;;;;;7.13;4.75;;;-2.70;99.90;;;;;;5014581;28;20314;-61
2024/01/29 05:00:06;;;;;;;5.07;4.60;;;-2.70;99.90;;;;;;5015352;28;20322;-62
2024/01/29 05:02:33;;;;;;;3.80;3.60;;;-2.70;99.90;;;;;;5015453;28;20204;-62
2024/01/29 05:05:00;;;;;;;5.00;4.13;;;-2.70;99.90;;;;;;5015649;28;20786;-61
2024/01/29 05:07:27;;;;;;;4.35;3.80;;;-2.70;99.90;;;;;;5015288;28;20295;-61
2024/01/29 05:09:54;;;;;;;3.28;3.08;;;-2.70;99.90;;;;;;5015453;28;20681;-62
2024/01/29 05:12:21;;;;;;;7.13;4.97;;;-2.70;99.90;;;;;;5015397;28;20219;-61
2024/01/29 05:14:49;;;;;;;4.80;4.35;;;-2.70;99.90;;;;;;5015617;28;20298;-61
2024/01/29 05:17:16;;;;;;;5.07;4.78;;;-2.70;99.90;;;;;;5015495;28;20235;-62
2024/01/29 05:19:45;;;;;;;4.28;3.97;;;-2.60;99.90;;;;;;5015149;28;20805;-61
2024/01/29 05:22:12;;;;;;;4.90;4.40;;;-2.70;99.90;;;;;;5015260;28;20212;-62
2024/01/29 05:24:39;;;;;;;4.80;4.40;;;-2.60;99.90;;;;;;5015285;28;20581;-61
2024/01/29 05:27:06;;;;;;;5.65;4.38;;;-2.60;99.90;;;;;;5015303;28;20613;-61
2024/01/29 05:29:33;;;;;;;5.13;3.78;;;-2.70;99.90;;;;;;5014911;28;20319;-61
2024/01/29 05:32:01;;;;;;;4.65;4.18;;;-2.60;99.90;;;;;;5014780;28;20299;-61
2024/01/29 05:34:28;;;;;;;5.35;4.88;;;-2.70;99.90;;;;;;5015364;28;20299;-61
2024/01/29 05:36:54;;;;;;;6.00;5.50;;;-2.70;99.90;;;;;;5014776;28;20223;-61
2024/01/29 05:39:21;;;;;;;4.82;4.30;;;-2.60;99.90;;;;;;5015160;28;20259;-61
2024/01/29 05:41:48;;;;;;;4.88;4.47;;;-2.60;99.90;;;;;;5014780;28;20322;-61
2024/01/29 05:44:15;;;;;;;6.40;4.38;;;-2.60;99.90;;;;;;5015007;28;20212;-61
2024/01/29 05:46:42;;;;;;;4.03;3.72;;;-2.60;99.90;;;;;;5015077;28;20306;-61
2024/01/29 05:49:10;;;;;;;7.63;6.57;;;-2.60;99.90;;;;;;5014459;28;20258;-61
2024/01/29 05:51:37;;;;;;;3.80;3.60;;;-2.60;99.90;;;;;;5014640;28;20218;-61
2024/01/29 05:54:04;;;;;;;4.03;3.60;;;-2.60;99.90;;;;;;5014814;28;20299;-62
2024/01/29 05:56:31;;;;;;;4.97;4.45;;;-2.60;99.90;;;;;;5014706;28;20303;-61
2024/01/29 05:58:58;;;;;;;4.38;4.07;;;-2.60;99.90;;;;;;5014482;28;20231;-61
2024/01/29 06:01:24;;;;;;;5.40;4.40;;;-2.60;99.90;;;;;;5014760;28;20306;-61
2024/01/29 06:03:51;;;;;;;5.10;4.68;;;-2.60;99.90;;;;;;5014296;28;20656;-61
2024/01/29 06:06:19;;;;;;;7.65;5.03;;;-2.50;99.90;;;;;;5013783;28;20200;-62
2024/01/29 06:08:46;;;;;;;5.63;4.93;;;-2.50;99.90;;;;;;5013186;28;20306;-63
2024/01/29 06:11:13;;;;;;;7.60;5.85;;;-2.50;99.90;;;;;;5013922;28;20742;-62
2024/01/29 06:13:40;;;;;;;6.63;5.30;;;-2.50;99.90;;;;;;5013519;28;20705;-62
2024/01/29 06:16:07;;;;;;;8.60;5.85;;;-2.50;99.90;;;;;;5013361;28;20688;-62
2024/01/29 06:18:34;;;;;;;5.43;4.90;;;-2.50;99.90;;;;;;5012354;28;20758;-61
2024/01/29 06:21:01;;;;;;;4.75;4.35;;;-2.40;99.90;;;;;;5013696;28;20303;-62
2024/01/29 06:23:29;;;;;;;5.10;4.45;;;-2.50;99.90;;;;;;5014206;28;20830;-62
2024/01/29 06:25:56;;;;;;;5.15;4.68;;;-2.40;99.90;;;;;;5013770;28;20208;-62
2024/01/29 06:28:23;;;;;;;12.10;4.65;;;-2.40;99.90;;;;;;5013673;28;20323;-62
2024/01/29 06:30:50;;;;;;;3.70;3.40;;;-2.40;99.90;;;;;;5013527;28;20303;-62
2024/01/29 06:33:17;;;;;;;5.90;4.43;;;-2.40;99.90;;;;;;5013891;28;20298;-62
2024/01/29 06:35:43;;;;;;;4.07;3.78;;;-2.40;99.90;;;;;;5013281;28;20306;-61
2024/01/29 06:38:09;;;;;;;5.72;4.88;;;-2.50;99.90;;;;;;5013603;28;20333;-62
2024/01/29 06:40:37;;;;;;;3.43;3.10;;;-2.40;99.90;;;;;;5013583;28;20290;-62
2024/01/29 06:43:04;;;;;;;4.22;3.83;;;-2.40;99.90;;;;;;5013904;28;20545;-62
2024/01/29 06:45:32;;;;;;;5.70;5.20;;;-2.40;99.90;;;;;;5013509;28;20308;-62
2024/01/29 06:47:58;;;;;;;5.18;4.65;;;-2.40;99.90;;;;;;5013515;28;20634;-63
2024/01/29 06:50:25;;;;;;;5.57;4.20;;;-2.40;99.90;;;;;;5013283;28;20327;-63
2024/01/29 06:52:52;;;;;;;4.95;4.53;;;-2.40;99.90;;;;;;5012994;28;20299;-63
2024/01/29 06:55:20;;;;;;;5.13;3.97;;;-2.40;99.90;;;;;;5012680;28;20212;-62
2024/01/29 06:57:48;;;;;;;3.88;3.58;;;-2.50;99.90;;;;;;5012706;28;20655;-63
2024/01/29 07:00:16;;;;;;;4.72;4.05;;;-2.40;99.90;;;;;;5011929;28;20777;-63
2024/01/29 07:02:43;;;;;;;4.90;4.50;;;-2.50;99.90;;;;;;5011041;28;20206;-62
2024/01/29 07:05:09;;;;;;;4.38;3.97;;;-2.50;99.90;;;;;;5012310;28;20204;-62
2024/01/29 07:07:36;;;;;;;5.20;3.85;;;-2.40;99.90;;;;;;5012770;28;20198;-62
2024/01/29 07:10:03;;;;;;;4.47;4.07;;;-2.40;99.90;;;;;;5012085;28;20270;-63
2024/01/29 07:12:30;;;;;;;5.40;4.35;;;-2.40;99.90;;;;;;5012278;28;20278;-62
2024/01/29 07:14:58;;;;;;;3.67;3.25;;;-2.40;99.90;;;;;;5012377;28;20208;-62
2024/01/29 07:17:25;;;;;;;5.35;4.85;;;-2.30;99.90;;;;;;5011399;28;20310;-62
2024/01/29 07:19:52;;;;;;;5.78;4.45;;;-2.30;99.90;;;;;;5012823;28;20231;-62
2024/01/29 07:22:19;;;;;;;6.00;4.90;;;-2.40;99.90;;;;;;5012961;28;20212;-62
2024/01/29 07:24:46;;;;;;;4.22;3.92;;;-2.30;99.90;;;;;;5012932;28;20299;-62
2024/01/29 07:27:13;;;;;;;7.68;6.57;;;-2.40;99.90;;;;;;5012991;28;20625;-62
2024/01/29 07:29:40;;;;;;;7.80;4.70;;;-2.40;99.90;;;;;;5012714;28;20234;-62
2024/01/29 07:32:08;;;;;;;5.70;5.20;;;-2.40;99.90;;;;;;5012433;28;20216;-61
2024/01/29 07:34:36;;;;;;;4.82;4.35;;;-2.40;99.90;;;;;;5012774;28;20294;-62
2024/01/29 07:37:04;;;;;;;6.45;5.95;;;-2.40;99.90;;;;;;5012988;28;20273;-62
2024/01/29 07:39:30;;;;;;;5.57;5.07;;;-2.30;99.90;;;;;;5012562;28;20278;-62
2024/01/29 07:41:57;;;;;;;5.47;4.97;;;-2.30;99.90;;;;;;5012105;28;20299;-62
2024/01/29 07:44:24;;;;;;;6.75;5.00;;;-2.30;99.90;;;;;;5012285;28;20215;-62
2024/01/29 07:46:51;;;;;;;4.18;3.88;;;-2.30;99.90;;;;;;5012765;28;20239;-62
2024/01/29 07:49:19;;;;;;;5.65;5.25;;;-2.20;99.90;;;;;;5012303;28;20710;-62
2024/01/29 07:51:46;;;;;;;5.80;5.30;;;-2.20;99.90;;;;;;5012452;28;20693;-62
2024/01/29 07:54:13;;;;;;;5.68;4.80;;;-2.20;99.90;;;;;;5012647;28;20207;-62
2024/01/29 07:56:41;;;;;;;5.47;4.97;;;-2.20;99.90;;;;;;5012517;28;20306;-62
2024/01/29 07:59:08;;;;;;;4.78;4.38;;;-2.20;99.90;;;;;;5012490;28;20232;-62
2024/01/29 08:01:35;;;;;;;6.00;5.47;;;-2.10;99.90;;;;;;5012807;28;20729;-62
2024/01/29 08:04:03;;;;;;;7.13;4.43;;;-2.10;99.90;;;;;;5013099;28;20299;-62
2024/01/29 08:06:31;;;;;;;5.07;4.68;;;-2.10;99.90;;;;;;5012713;28;20208;-62
2024/01/29 08:08:58;;;;;;;5.25;4.72;;;-2.00;99.90;;;;;;5012423;28;20314;-63
2024/01/29 08:11:25;;;;;;;7.90;5.15;;;-2.00;99.90;;;;;;5012346;28;20298;-62
2024/01/29 08:13:52;;;;;;;3.97;3.67;;;-1.90;99.90;;;;;;5013184;28;20214;-62
2024/01/29 08:16:19;;;;;;;8.40;5.25;;;-1.90;99.90;;;;;;5013138;28;20299;-61
2024/01/29 08:18:46;;;;;;;6.95;5.15;;;-1.90;99.90;;;;;;5012432;28;20238;-62
2024/01/29 08:21:12;;;;;;;6.47;5.95;;;-1.90;99.90;;;;;;5012315;28;20204;-61
2024/01/29 08:23:41;;;;;;;5.80;5.40;;;-1.80;99.90;;;;;;5010323;28;20204;-61
2024/01/29 08:26:07;;;;;;;9.23;5.60;;;-1.80;99.90;;;;;;5011995;28;20267;-62
2024/01/29 08:28:34;;;;;;;5.75;4.55;;;-1.80;99.90;;;;;;5011940;28;20223;-62
2024/01/29 08:31:01;;;;;;;5.28;4.82;;;-1.70;99.90;;;;;;5011651;28;20298;-62
2024/01/29 08:33:29;;;;;;;5.00;4.57;;;-1.70;99.90;;;;;;5012273;28;20235;-62
2024/01/29 08:35:56;;;;;;;6.88;4.40;;;-1.60;99.90;;;;;;5012219;28;20296;-63
2024/01/29 08:38:23;;;;;;;6.40;5.72;;;-1.60;99.90;;;;;;5011965;28;20224;-62
2024/01/29 08:40:52;;;;;;;7.18;6.60;;;-1.60;99.90;;;;;;5011698;28;20295;-62
2024/01/29 08:43:19;;;;;;;5.43;4.93;;;-1.50;99.90;;;;;;5014808;28;20267;-62
2024/01/29 08:45:46;;;;;;;6.30;5.70;;;-1.50;99.90;;;;;;5015644;28;20663;-62
2024/01/29 08:48:13;;;;;;;5.70;4.95;;;-1.50;99.90;;;;;;5015512;28;20227;-63
2024/01/29 08:50:40;;;;;;;9.73;5.35;;;-1.40;99.90;;;;;;5015584;28;20208;-63
2024/01/29 08:53:07;;;;;;;5.18;4.68;;;-1.40;99.90;;;;;;5015140;28;20306;-62
2024/01/29 08:55:34;;;;;;;5.82;4.97;;;-1.40;99.90;;;;;;5008850;28;20331;-63
2024/01/29 08:58:02;;;;;;;4.93;4.63;;;-1.30;99.90;;;;;;5014529;28;20653;-62
2024/01/29 09:00:29;;;;;;;6.40;5.22;;;-1.30;99.90;;;;;;5011084;28;20315;-61
2024/01/29 09:02:56;;;;;;;6.40;5.65;;;-1.30;99.90;;;;;;5014414;28;20753;-63
2024/01/29 09:05:23;;;;;;;5.82;5.32;;;-1.20;99.90;;;;;;5012719;28;20208;-62
2024/01/29 09:07:50;;;;;;;5.80;5.25;;;-1.20;99.90;;;;;;5013885;28;20216;-61
2024/01/29 09:10:16;;;;;;;6.15;5.65;;;-1.10;99.90;;;;;;5015423;28;20243;-63
2024/01/29 09:12:43;;;;;;;7.28;6.55;;;-1.10;99.90;;;;;;5016008;28;20210;-62
2024/01/29 09:15:12;;;;;;;9.00;6.53;;;-1.10;99.90;;;;;;5015998;28;20293;-63
2024/01/29 09:17:40;;;;;;;6.70;6.10;;;-1.00;99.90;;;;;;5012962;28;20206;-62
2024/01/29 09:20:08;;;;;;;8.93;6.88;;;-1.00;99.90;;;;;;5011008;28;20224;-63
2024/01/29 09:22:35;;;;;;;9.40;6.53;;;-0.90;99.90;;;;;;5013487;28;20692;-63
2024/01/29 09:25:02;;;;;;;7.70;6.88;;;-0.90;99.90;;;;;;5011618;28;20712;-63
2024/01/29 09:27:31;;;;;;;8.20;7.60;;;-0.80;99.90;;;;;;5013655;28;20203;-63
2024/01/29 09:29:58;;;;;;;8.07;7.38;;;-0.80;99.90;;;;;;5012580;28;20659;-63
2024/01/29 09:32:26;;;;;;;9.25;7.70;;;-0.70;99.90;;;;;;5011384;28;20224;-63
2024/01/29 09:34:53;;;;;;;8.57;7.70;;;-0.70;99.90;;;;;;5012524;28;20208;-63
2024/01/29 09:37:20;;;;;;;9.38;6.72;;;-0.60;99.90;;;;;;5018049;28;20316;-64
2024/01/29 09:39:47;;;;;;;7.95;7.10;;;-0.60;99.90;;;;;;5012676;28;20311;-63
2024/01/29 09:42:18;;;;;;;8.40;7.15;;;-0.50;99.90;;;;;;5012227;28;20869;-63
2024/01/29 09:44:47;;;;;;;7.38;6.03;;;-0.50;99.90;;;;;;5011605;28;20647;-62
2024/01/29 09:47:15;;;;;;;6.57;6.07;;;-0.40;99.90;;;;;;5006275;28;20212;-63
2024/01/29 09:49:43;;;;;;;7.28;6.68;;;-0.30;99.90;;;;;;5012644;28;20310;-63
2024/01/29 09:52:13;;;;;;;6.85;6.25;;;-0.30;99.90;;;;;;5012512;28;20676;-62
2024/01/29 09:54:40;;;;;;;6.15;5.47;;;-0.20;99.90;;;;;;5012734;28;20211;-63
2024/01/29 09:57:09;;;;;;;6.90;6.00;;;-0.10;99.90;;;;;;5009524;28;20208;-63
2024/01/29 09:59:36;;;;;;;8.75;6.40;;;0.00;99.90;;;;;;5012376;28;20315;-63
2024/01/29 10:02:04;;;;;;;7.20;6.50;;;0.00;99.90;;;;;;5010001;28;20204;-63
2024/01/29 10:04:30;;;;;;;8.35;7.50;;;0.10;99.90;;;;;;5013013;28;20235;-63
2024/01/29 10:06:59;;;;;;;8.82;8.02;;;0.20;99.90;;;;;;5011183;28;20302;-63
2024/01/29 10:09:25;;;;;;;7.45;6.78;;;0.20;99.90;;;;;;5012363;28;20311;-63
2024/01/29 10:11:52;;;;;;;9.23;8.38;;;0.30;99.90;;;;;;5005672;28;20209;-63
2024/01/29 10:14:19;;;;;;;7.60;6.80;;;0.40;99.90;;;;;;5011660;28;20306;-63
2024/01/29 10:16:48;;;;;;;7.88;7.18;;;0.40;99.90;;;;;;5011061;28;20939;-63
2024/01/29 10:19:15;;;;;;;8.77;7.97;;;0.60;99.90;;;;;;5012252;28;20640;-64
2024/01/29 10:21:43;;;;;;;10.82;9.35;;;0.70;99.90;;;;;;5012619;28;20640;-63
2024/01/29 10:24:15;;;;;;;9.20;8.40;;;0.80;99.90;;;;;;5012935;28;20637;-64
2024/01/29 10:26:42;;;;;;;10.80;9.75;;;0.90;99.90;;;;;;5012380;28;20232;-63
2024/01/29 10:29:10;;;;;;;10.18;9.27;;;1.00;99.90;;;;;;5011035;28;20215;-63
2024/01/29 10:31:37;;;;;;;11.25;10.18;;;1.10;99.90;;;;;;5011323;28;20244;-64
2024/01/29 10:34:05;;;;;;;12.50;8.15;;;1.30;99.90;;;;;;5012054;28;20203;-64
2024/01/29 10:36:33;;;;;;;14.00;10.02;;;1.40;99.90;;;;;;5009521;28;20204;-64
2024/01/29 10:39:02;;;;;;;10.88;9.18;;;1.60;99.90;;;;;;5011669;28;20259;-63
2024/01/29 10:41:33;;;;;;;10.77;9.75;;;1.80;99.90;;;;;;5011402;28;20204;-62
2024/01/29 10:44:04;;;;;;;11.15;10.20;;;2.00;99.90;;;;;;5012055;28;20210;-63
2024/01/29 10:46:35;;;;;;;11.57;10.30;;;2.20;99.90;;;;;;5009507;28;20195;-63
2024/01/29 10:49:02;;;;;;;11.45;10.38;;;2.30;99.90;;;;;;5011650;28;20303;-63
2024/01/29 10:51:31;;;;;;;9.88;8.68;;;2.60;99.90;;;;;;4995610;28;20922;-63
2024/01/29 10:54:01;;;;;;;11.93;10.95;;;2.80;99.90;;;;;;5012113;28;20204;-63
2024/01/29 10:56:31;;;;;;;9.63;8.82;;;3.00;99.90;;;;;;5009473;28;20685;-63
2024/01/29 10:58:59;;;;;;;10.57;9.68;;;3.20;99.90;;;;;;5011770;28;20227;-63
2024/01/29 11:01:26;;;;;;;10.45;9.45;;;3.50;99.90;;;;;;5011555;28;20670;-64
2024/01/29 11:03:53;;;;;;;12.00;9.98;;;3.70;99.90;;;;;;5009616;28;20214;-63
2024/01/29 11:06:27;;;;;;;10.82;8.80;;;3.90;99.90;;;;;;5011068;28;20207;-64
2024/01/29 11:08:59;;;;;;;9.52;8.60;;;4.10;99.90;;;;;;5010478;28;20231;-64
2024/01/29 11:11:28;;;;;;;9.80;8.80;;;4.30;99.90;;;;;;5011712;28;20206;-64
2024/01/29 11:13:57;;;;;;;10.27;9.48;;;4.50;99.90;;;;;;5011892;28;20219;-64
2024/01/29 11:16:24;;;;;;;8.80;8.10;;;4.50;99.90;;;;;;5009396;28;20207;-64
2024/01/29 11:18:51;;;;;;;10.73;9.63;;;4.60;99.90;;;;;;5010984;28;20231;-64
2024/01/29 11:21:24;;;;;;;13.85;10.25;;;4.70;99.90;;;;;;5011123;28;20212;-64
2024/01/29 11:23:55;;;;;;;9.35;8.55;;;4.90;99.90;;;;;;5011311;28;20737;-64
2024/01/29 11:26:23;;;;;;;9.10;8.20;;;5.00;99.90;;;;;;5011533;28;20674;-64
2024/01/29 11:28:57;;;;;;;12.43;10.10;;;5.20;99.90;;;;;;5010938;28;20243;-64
2024/01/29 11:31:24;;;;;;;12.35;8.93;;;5.20;99.90;;;;;;5011053;28;20211;-64
2024/01/29 11:33:51;;;;;;;10.20;9.20;;;5.30;99.90;;;;;;5010977;28;20310;-64
2024/01/29 11:36:19;;;;;;;9.27;8.48;;;5.50;99.90;;;;;;5011366;28;20234;-63
2024/01/29 11:38:45;;;;;;;9.82;8.82;;;5.60;99.90;;;;;;5011076;28;20303;-64
2024/01/29 11:41:13;;;;;;;10.45;9.57;;;5.60;99.90;;;;;;5011136;28;20238;-64
2024/01/29 11:43:41;;;;;;;10.05;9.02;;;5.80;99.90;;;;;;5011353;28;20637;-64
2024/01/29 11:46:11;;;;;;;9.00;8.20;;;5.90;99.90;;;;;;5010983;28;20254;-64
2024/01/29 11:48:38;;;;;;;9.13;8.15;;;6.10;99.90;;;;;;5011122;28;20255;-64
2024/01/29 11:51:05;;;;;;;9.25;8.45;;;6.20;99.90;;;;;;5010933;28;20777;-64
2024/01/29 11:53:32;;;;;;;9.35;8.52;;;6.30;99.90;;;;;;5011294;28;20208;-64
2024/01/29 11:55:59;;;;;;;11.13;9.65;;;6.40;99.90;;;;;;5010711;28;20295;-64
2024/01/29 11:58:26;;;;;;;9.45;8.50;;;6.50;99.90;;;;;;5010649;28;20211;-64
2024/01/29 12:00:54;;;;;;;9.85;8.93;;;6.60;99.90;;;;;;5011202;28;20282;-63
2024/01/29 12:03:23;;;;;;;9.88;8.68;;;6.70;99.90;;;;;;5011101;28;20279;-62
2024/01/29 12:05:51;;;;;;;10.35;9.30;;;6.70;99.90;;;;;;5011336;28;20231;-63
2024/01/29 12:08:19;;;;;;;8.45;7.65;;;6.90;99.90;;;;;;5010869;28;20223;-63
2024/01/29 12:10:47;;;;;;;10.02;9.27;;;7.00;99.90;;;;;;5011257;28;20283;-62
2024/01/29 12:13:14;;;;;;;8.93;8.18;;;7.10;99.90;;;;;;5010918;28;20287;-62
2024/01/29 12:15:40;;;;;;;10.20;7.88;;;7.20;99.90;;;;;;5011293;28;20288;-62
2024/01/29 12:18:13;;;;;;;8.50;7.80;;;7.20;99.90;;;;;;5013489;28;20207;-62
2024/01/29 12:20:42;;;;;;;8.52;7.75;;;7.30;99.90;;;;;;5014085;28;20315;-61
2024/01/29 12:23:10;;;;;;;10.35;9.43;;;7.50;99.90;;;;;;5014225;28;20291;-62
2024/01/29 12:25:37;;;;;;;8.48;7.88;;;7.70;99.90;;;;;;5014895;28;20212;-62
2024/01/29 12:28:06;;;;;;;9.23;8.40;;;7.90;99.90;;;;;;5014283;28;20302;-62
2024/01/29 12:30:33;;;;;;;7.97;7.33;;;8.10;99.90;;;;;;5014542;28;20200;-63
2024/01/29 12:33:00;;;;;;;10.30;9.40;;;8.30;99.90;;;;;;5014381;28;20534;-62
2024/01/29 12:35:28;;;;;;;10.60;9.10;;;8.50;99.90;;;;;;5014358;28;20562;-62
2024/01/29 12:38:05;;;;;;;8.83;8.13;;;8.60;99.90;;;;;;5014120;28;20962;-62
2024/01/29 12:40:32;;;;;;;8.60;7.80;;;8.80;99.90;;;;;;5014385;28;20490;-62
2024/01/29 12:43:01;;;;;;;8.23;7.53;;;8.90;99.90;;;;;;5014785;28;20549;-61
2024/01/29 12:45:28;;;;;;;8.87;8.17;;;9.10;99.90;;;;;;5014767;28;20442;-62
2024/01/29 12:48:05;;;;;;;9.00;8.40;;;9.40;99.90;;;;;;5014290;28;20442;-62